createdAt,value
2019-06-08T00:04:44.987Z,18.55
2019-06-08T00:09:52.258Z,18.50
2019-06-08T00:14:59.657Z,18.66
2019-06-08T00:20:07.366Z,18.64
2019-06-08T00:25:16.116Z,18.78
2019-06-08T00:30:23.709Z,18.88
2019-06-08T00:35:31.047Z,18.98
2019-06-08T00:40:38.549Z,18.98
2019-06-08T00:45:45.975Z,18.93
2019-06-08T00:50:54.400Z,18.81
2019-06-08T00:56:01.888Z,18.58
2019-06-08T01:01:09.690Z,18.35
2019-06-08T01:06:17.081Z,18.32
2019-06-08T01:11:24.745Z,18.32
2019-06-08T01:16:32.321Z,18.27
2019-06-08T01:21:39.654Z,18.19
2019-06-08T01:26:47.010Z,18.09
2019-06-08T01:31:54.517Z,18.08
2019-06-08T01:37:01.996Z,18.03
2019-06-08T01:42:09.346Z,17.97
2019-06-08T01:47:16.637Z,17.98
2019-06-08T01:52:24.636Z,18.00
2019-06-08T01:57:33.699Z,17.97
2019-06-08T02:02:41.359Z,18.00
2019-06-08T02:07:48.812Z,17.92
2019-06-08T02:12:56.112Z,17.98
2019-06-08T02:18:03.540Z,17.98
2019-06-08T02:23:10.968Z,18.08
2019-06-08T02:28:18.382Z,18.11
2019-06-08T02:33:25.813Z,18.07
2019-06-08T02:38:34.592Z,18.02
2019-06-08T02:43:42.140Z,17.95
2019-06-08T02:49:03.543Z,17.87
2019-06-08T02:53:59.628Z,17.88
2019-06-08T02:59:07.342Z,17.69
2019-06-08T03:04:17.438Z,17.70
2019-06-08T03:09:27.637Z,17.67
2019-06-08T03:14:35.603Z,17.57
2019-06-08T03:19:44.632Z,17.51
2019-06-08T03:24:53.184Z,17.26
2019-06-08T03:30:15.092Z,17.38
2019-06-08T03:35:10.793Z,17.27
2019-06-08T03:40:18.480Z,17.02
2019-06-08T03:45:25.781Z,16.95
2019-06-08T03:50:35.302Z,17.03
2019-06-08T03:55:44.953Z,17.19
2019-06-08T04:00:51.712Z,17.25
2019-06-08T04:05:59.185Z,16.91
2019-06-08T04:11:06.646Z,16.73
2019-06-08T04:16:13.985Z,16.75
2019-06-08T04:21:21.349Z,16.98
2019-06-08T04:26:28.768Z,17.01
2019-06-08T04:31:37.735Z,17.09
2019-06-08T04:36:46.350Z,16.97
2019-06-08T04:41:55.343Z,16.89
2019-06-08T04:47:02.774Z,16.89
2019-06-08T04:52:10.075Z,16.98
2019-06-08T04:57:17.366Z,17.04
2019-06-08T05:02:24.818Z,17.14
2019-06-08T05:07:32.261Z,17.23
2019-06-08T05:12:41.165Z,17.33
2019-06-08T05:17:49.665Z,17.49
2019-06-08T05:22:57.722Z,17.50
2019-06-08T05:28:05.580Z,17.46
2019-06-08T05:33:12.826Z,17.46
2019-06-08T05:38:20.200Z,17.53
2019-06-08T05:43:27.585Z,17.58
2019-06-08T05:48:34.870Z,17.60
2019-06-08T05:53:42.255Z,17.69
2019-06-08T05:58:50.313Z,17.80
2019-06-08T06:03:58.201Z,17.83
2019-06-08T06:09:07.582Z,17.67
2019-06-08T06:14:15.280Z,17.58
2019-06-08T06:19:23.002Z,17.69
2019-06-08T06:24:30.426Z,17.78
2019-06-08T06:29:37.881Z,17.91
2019-06-08T06:34:45.839Z,17.90
2019-06-08T06:39:53.454Z,18.00
2019-06-08T06:45:01.016Z,18.07
2019-06-08T06:50:09.379Z,18.21
2019-06-08T06:55:17.320Z,18.36
2019-06-08T07:00:33.800Z,18.35
2019-06-08T07:05:41.274Z,18.44
2019-06-08T07:10:48.649Z,18.35
2019-06-08T07:15:58.164Z,18.29
2019-06-08T07:21:10.202Z,18.37
2019-06-08T07:26:17.526Z,18.44
2019-06-08T07:31:25.757Z,18.37
2019-06-08T07:36:33.247Z,18.40
2019-06-08T07:41:40.673Z,18.48
2019-06-08T07:46:49.364Z,18.54
2019-06-08T07:52:06.673Z,18.78
2019-06-08T07:57:05.996Z,18.86
2019-06-08T08:02:13.407Z,18.72
2019-06-08T08:07:20.879Z,18.73
2019-06-08T08:12:28.178Z,18.64
2019-06-08T08:17:35.661Z,18.70
2019-06-08T08:22:43.026Z,18.81
2019-06-08T08:27:51.893Z,18.92
2019-06-08T08:33:02.706Z,18.74
2019-06-08T08:38:08.485Z,18.76
2019-06-08T08:43:17.847Z,18.77
2019-06-08T08:48:28.386Z,18.67
2019-06-08T08:53:34.045Z,18.60
2019-06-08T08:58:41.480Z,18.65
2019-06-08T09:03:51.833Z,18.58
2019-06-08T09:09:00.785Z,18.56
2019-06-08T09:14:10.893Z,18.43
2019-06-08T09:19:18.375Z,18.59
2019-06-08T09:24:25.146Z,18.62
2019-06-08T09:29:32.507Z,18.69
2019-06-08T09:34:39.926Z,18.74
2019-06-08T09:39:48.295Z,18.87
2019-06-08T09:45:00.086Z,18.88
2019-06-08T09:50:05.736Z,18.92
2019-06-08T09:55:14.244Z,18.94
2019-06-08T10:00:25.649Z,19.00
2019-06-08T10:05:30.976Z,19.18
2019-06-08T10:10:38.409Z,19.58
2019-06-08T10:15:51.206Z,20.02
2019-06-08T10:20:58.138Z,20.73
2019-06-08T10:26:06.309Z,21.67
2019-06-08T10:31:14.266Z,22.66
2019-06-08T10:36:21.715Z,22.61
2019-06-08T10:41:29.145Z,22.07
2019-06-08T10:46:40.234Z,21.79
2019-06-08T10:51:48.477Z,22.70
2019-06-08T10:56:54.710Z,23.60
2019-06-08T11:02:05.387Z,23.22
2019-06-08T11:07:16.114Z,23.46
2019-06-08T11:12:22.668Z,23.49
2019-06-08T11:17:30.008Z,23.54
2019-06-08T11:22:37.590Z,24.04
2019-06-08T11:27:47.400Z,24.12
2019-06-08T11:32:54.382Z,23.75
2019-06-08T11:38:02.253Z,23.85
2019-06-08T11:43:10.690Z,24.16
2019-06-08T11:48:18.569Z,24.28
2019-06-08T11:53:28.675Z,25.16
2019-06-08T11:58:38.539Z,25.75
2019-06-08T12:03:48.233Z,26.47
2019-06-08T12:08:57.426Z,27.35
2019-06-08T12:14:04.860Z,26.45
2019-06-08T12:19:15.772Z,25.14
2019-06-08T12:24:21.491Z,24.39
2019-06-08T12:29:30.247Z,23.84
2019-06-08T12:34:38.367Z,23.70
2019-06-08T12:39:46.040Z,23.65
2019-06-08T12:44:53.481Z,24.81
2019-06-08T12:50:00.908Z,26.90
2019-06-08T12:55:15.906Z,28.17
2019-06-08T13:00:20.117Z,29.01
2019-06-08T13:05:28.309Z,29.44
2019-06-08T13:10:37.659Z,29.63
2019-06-08T13:15:44.737Z,30.20
2019-06-08T13:20:52.185Z,30.35
2019-06-08T13:25:59.610Z,30.19
2019-06-08T13:31:07.861Z,30.65
2019-06-08T13:36:18.711Z,31.02
2019-06-08T13:41:29.028Z,30.42
2019-06-08T13:46:33.908Z,30.64
2019-06-08T13:51:41.395Z,30.92
2019-06-08T13:56:50.618Z,31.49
2019-06-08T14:01:58.023Z,32.14
2019-06-08T14:07:07.610Z,32.67
2019-06-08T14:12:14.766Z,32.57
2019-06-08T14:17:24.155Z,32.29
2019-06-08T14:22:31.199Z,32.68
2019-06-08T14:27:38.664Z,32.32
2019-06-08T14:32:47.903Z,32.79
2019-06-08T14:37:55.150Z,33.15
2019-06-08T14:43:02.567Z,33.37
2019-06-08T14:48:10.051Z,33.77
2019-06-08T14:53:18.881Z,34.11
2019-06-08T14:58:32.775Z,34.22
2019-06-08T15:03:37.872Z,33.81
2019-06-08T15:08:50.092Z,31.89
2019-06-08T15:13:55.312Z,30.26
2019-06-08T15:19:02.841Z,29.58
2019-06-08T15:24:10.470Z,30.04
2019-06-08T15:29:17.948Z,29.36
2019-06-08T15:34:28.307Z,28.42
2019-06-08T15:39:34.539Z,27.43
2019-06-08T15:44:41.897Z,26.89
2019-06-08T15:49:50.429Z,26.19
2019-06-08T15:55:01.323Z,26.24
2019-06-08T16:00:10.191Z,26.08
2019-06-08T16:05:17.823Z,25.90
2019-06-08T16:10:26.331Z,25.65
2019-06-08T16:15:35.238Z,26.01
2019-06-08T16:20:42.644Z,25.76
2019-06-08T16:25:50.179Z,25.38
2019-06-08T16:30:57.608Z,24.99
2019-06-08T16:36:05.053Z,24.60
2019-06-08T16:41:12.542Z,24.49
2019-06-08T16:46:20.001Z,24.31
2019-06-08T16:51:27.374Z,24.00
2019-06-08T16:56:36.322Z,23.68
2019-06-08T17:01:44.117Z,23.45
2019-06-08T17:06:51.592Z,23.25
2019-06-08T17:11:58.896Z,23.17
2019-06-08T17:17:06.371Z,23.07
2019-06-08T17:22:13.798Z,22.98
2019-06-08T17:27:26.831Z,22.80
2019-06-08T17:32:31.340Z,22.63
2019-06-08T17:37:40.106Z,22.27
2019-06-08T17:42:47.820Z,22.07
2019-06-08T17:47:55.313Z,21.67
2019-06-08T17:53:02.687Z,21.71
2019-06-08T17:58:10.192Z,21.50
2019-06-08T18:03:17.726Z,20.95
2019-06-08T18:08:25.977Z,20.90
2019-06-08T18:13:34.237Z,20.84
2019-06-08T18:18:42.473Z,20.43
2019-06-08T18:23:50.834Z,20.24
2019-06-08T18:28:58.286Z,19.95
2019-06-08T18:34:08.268Z,19.75
2019-06-08T18:39:14.778Z,19.53
2019-06-08T18:44:39.390Z,19.32
2019-06-08T18:49:48.399Z,19.25
2019-06-08T18:54:57.683Z,19.14
2019-06-08T19:00:10.992Z,18.88
2019-06-08T19:05:14.168Z,19.10
2019-06-08T19:10:33.366Z,19.17
2019-06-08T19:15:44.259Z,18.80
2019-06-08T19:20:53.484Z,18.41
2019-06-08T19:26:00.588Z,18.15
2019-06-08T19:31:10.281Z,17.90
2019-06-08T19:36:18.190Z,17.75
2019-06-08T19:41:28.101Z,17.53
2019-06-08T19:46:34.995Z,17.56
2019-06-08T19:51:42.909Z,17.69
2019-06-08T19:56:54.274Z,17.65
2019-06-08T20:02:00.009Z,17.15
2019-06-08T20:07:08.720Z,16.80
2019-06-08T20:12:18.497Z,16.67
2019-06-08T20:17:28.187Z,16.51
2019-06-08T20:22:37.791Z,16.26
2019-06-08T20:27:45.304Z,16.12
2019-06-08T20:32:54.481Z,16.42
2019-06-08T20:38:02.065Z,16.23
2019-06-08T20:43:09.606Z,16.10
2019-06-08T20:48:18.258Z,15.82
2019-06-08T20:53:28.143Z,15.65
2019-06-08T20:58:37.029Z,15.51
2019-06-08T21:03:44.019Z,15.79
2019-06-08T21:08:53.100Z,15.42
2019-06-08T21:14:00.499Z,15.49
2019-06-08T21:19:07.936Z,15.29
2019-06-08T21:24:17.338Z,15.71
2019-06-08T21:29:26.766Z,15.30
2019-06-08T21:34:33.422Z,15.09
2019-06-08T21:39:40.908Z,14.61
2019-06-08T21:44:50.500Z,14.39
2019-06-08T21:50:00.364Z,14.36
2019-06-08T21:55:07.434Z,14.86
2019-06-08T22:00:38.136Z,14.79
2019-06-08T22:05:26.132Z,14.31
2019-06-08T22:10:33.618Z,14.67
2019-06-08T22:15:41.083Z,14.57
2019-06-08T22:20:48.784Z,14.38
2019-06-08T22:25:59.234Z,14.41
2019-06-08T22:31:07.754Z,14.04
2019-06-08T22:36:14.840Z,14.41
2019-06-08T22:41:22.338Z,14.42
2019-06-08T22:46:29.605Z,13.92
2019-06-08T22:51:38.357Z,14.30
2019-06-08T22:56:47.795Z,14.39
2019-06-08T23:01:56.543Z,14.01
2019-06-08T23:07:06.129Z,13.78
2019-06-08T23:12:13.022Z,13.49
2019-06-08T23:17:20.443Z,13.76
2019-06-08T23:22:27.843Z,13.82
2019-06-08T23:27:37.788Z,13.88
2019-06-08T23:32:44.118Z,13.86
2019-06-08T23:37:51.547Z,14.00
2019-06-08T23:43:01.204Z,13.75
2019-06-08T23:48:08.744Z,13.34
2019-06-08T23:53:18.236Z,13.34
2019-06-08T23:58:27.718Z,13.50
